createdAt,value
2019-01-27T00:01:11.938Z,11.53
2019-01-27T00:03:38.823Z,11.57
2019-01-27T00:06:05.878Z,11.34
2019-01-27T00:08:36.175Z,11.28
2019-01-27T00:11:03.065Z,11.35
2019-01-27T00:13:31.595Z,11.47
2019-01-27T00:15:58.487Z,11.45
2019-01-27T00:18:25.387Z,11.43
2019-01-27T00:20:52.654Z,11.40
2019-01-27T00:23:19.897Z,11.21
2019-01-27T00:25:46.767Z,11.27
2019-01-27T00:28:14.017Z,11.28
2019-01-27T00:30:40.919Z,11.19
2019-01-27T00:33:07.883Z,11.28
2019-01-27T00:35:35.276Z,11.30
2019-01-27T00:38:02.490Z,11.30
2019-01-27T00:40:29.438Z,11.23
2019-01-27T00:42:56.380Z,11.32
2019-01-27T00:45:23.353Z,11.29
2019-01-27T00:47:50.313Z,11.32
2019-01-27T00:50:17.634Z,11.18
2019-01-27T00:52:44.936Z,11.27
2019-01-27T00:55:11.834Z,11.28
2019-01-27T00:57:39.065Z,11.31
2019-01-27T01:00:06.058Z,11.41
2019-01-27T01:02:33.045Z,11.37
2019-01-27T01:04:59.959Z,11.45
2019-01-27T01:07:26.858Z,11.39
2019-01-27T01:09:53.920Z,11.35
2019-01-27T01:12:21.171Z,11.35
2019-01-27T01:14:48.221Z,11.34
2019-01-27T01:17:15.171Z,11.39
2019-01-27T01:19:42.210Z,11.41
2019-01-27T01:22:09.191Z,11.33
2019-01-27T01:24:36.168Z,11.35
2019-01-27T01:27:03.154Z,11.33
2019-01-27T01:29:30.165Z,11.41
2019-01-27T01:31:57.217Z,11.39
2019-01-27T01:34:24.179Z,11.41
2019-01-27T01:36:51.090Z,11.26
2019-01-27T01:39:18.715Z,11.20
2019-01-27T01:41:45.674Z,11.20
2019-01-27T01:44:12.878Z,11.13
2019-01-27T01:46:40.149Z,11.23
2019-01-27T01:49:07.401Z,11.28
2019-01-27T01:51:34.314Z,11.23
2019-01-27T01:54:01.659Z,11.12
2019-01-27T01:56:28.583Z,11.26
2019-01-27T01:58:55.511Z,11.22
2019-01-27T02:01:22.850Z,11.28
2019-01-27T02:03:49.851Z,11.30
2019-01-27T02:06:16.814Z,11.33
2019-01-27T02:08:46.613Z,11.28
2019-01-27T02:11:13.576Z,11.09
2019-01-27T02:13:40.474Z,11.12
2019-01-27T02:16:08.672Z,11.17
2019-01-27T02:18:35.632Z,11.27
2019-01-27T02:21:04.140Z,11.29
2019-01-27T02:23:31.412Z,11.25
2019-01-27T02:25:58.791Z,11.36
2019-01-27T02:28:25.729Z,11.24
2019-01-27T02:30:52.678Z,11.29
2019-01-27T02:33:20.092Z,11.24
2019-01-27T02:35:46.981Z,11.09
2019-01-27T02:38:13.942Z,11.23
2019-01-27T02:40:40.835Z,11.04
2019-01-27T02:43:08.290Z,11.07
2019-01-27T02:45:35.547Z,11.00
2019-01-27T02:48:02.829Z,11.03
2019-01-27T02:50:30.049Z,11.24
2019-01-27T02:52:57.010Z,11.17
2019-01-27T02:55:23.958Z,11.19
2019-01-27T02:57:51.199Z,11.17
2019-01-27T03:00:19.582Z,11.22
2019-01-27T03:02:47.142Z,11.29
2019-01-27T03:05:14.079Z,11.11
2019-01-27T03:07:40.964Z,11.19
2019-01-27T03:10:07.849Z,11.14
2019-01-27T03:12:34.732Z,11.18
2019-01-27T03:15:01.639Z,11.27
2019-01-27T03:17:28.624Z,11.26
2019-01-27T03:19:55.624Z,11.26
2019-01-27T03:22:22.552Z,11.39
2019-01-27T03:24:49.524Z,11.28
2019-01-27T03:27:16.796Z,11.41
2019-01-27T03:29:43.772Z,11.49
2019-01-27T03:32:10.733Z,11.50
2019-01-27T03:34:38.030Z,11.44
2019-01-27T03:37:04.900Z,11.33
2019-01-27T03:39:31.836Z,11.35
2019-01-27T03:41:59.090Z,11.37
2019-01-27T03:44:26.052Z,11.27
2019-01-27T03:46:52.988Z,11.23
2019-01-27T03:49:19.874Z,11.28
2019-01-27T03:51:46.748Z,11.20
2019-01-27T03:54:14.692Z,11.17
2019-01-27T03:56:41.999Z,11.25
2019-01-27T03:59:08.953Z,11.32
2019-01-27T04:01:35.827Z,11.21
2019-01-27T04:04:02.728Z,11.21
2019-01-27T04:06:30.100Z,11.23
2019-01-27T04:08:57.340Z,11.32
2019-01-27T04:11:24.287Z,11.46
2019-01-27T04:13:51.169Z,11.48
2019-01-27T04:16:18.043Z,11.51
2019-01-27T04:18:44.969Z,11.52
2019-01-27T04:21:11.908Z,11.49
2019-01-27T04:23:38.800Z,11.42
2019-01-27T04:26:06.046Z,11.61
2019-01-27T04:28:32.948Z,11.59
2019-01-27T04:31:00.154Z,11.61
2019-01-27T04:33:27.420Z,11.56
2019-01-27T04:35:54.658Z,11.43
2019-01-27T04:38:21.625Z,11.51
2019-01-27T04:40:48.562Z,11.41
2019-01-27T04:43:15.560Z,11.34
2019-01-27T04:45:42.513Z,11.42
2019-01-27T04:48:09.492Z,11.38
2019-01-27T04:50:36.460Z,11.51
2019-01-27T04:53:03.810Z,11.47
2019-01-27T04:55:30.741Z,11.36
2019-01-27T04:57:59.761Z,11.43
2019-01-27T05:00:26.722Z,11.45
2019-01-27T05:02:53.657Z,11.54
2019-01-27T05:05:20.968Z,11.55
2019-01-27T05:07:47.908Z,11.42
2019-01-27T05:10:15.169Z,11.36
2019-01-27T05:12:42.538Z,11.40
2019-01-27T05:15:09.842Z,11.40
2019-01-27T05:17:37.042Z,11.40
2019-01-27T05:20:04.914Z,11.23
2019-01-27T05:22:32.314Z,11.13
2019-01-27T05:24:59.340Z,11.17
2019-01-27T05:27:26.281Z,11.26
2019-01-27T05:29:53.302Z,11.15
2019-01-27T05:32:20.549Z,11.07
2019-01-27T05:34:47.518Z,11.18
2019-01-27T05:37:14.854Z,11.32
2019-01-27T05:39:41.851Z,11.38
2019-01-27T05:42:08.836Z,11.36
2019-01-27T05:44:36.104Z,11.57
2019-01-27T05:47:03.351Z,11.51
2019-01-27T05:49:30.302Z,11.73
2019-01-27T05:51:57.221Z,11.84
2019-01-27T05:54:24.189Z,11.90
2019-01-27T05:56:56.528Z,11.84
2019-01-27T05:59:19.610Z,11.91
2019-01-27T06:01:46.866Z,11.91
2019-01-27T06:04:30.030Z,11.86
2019-01-27T06:06:57.045Z,11.84
2019-01-27T06:09:24.065Z,11.76
2019-01-27T06:11:53.126Z,11.78
2019-01-27T06:14:21.686Z,11.88
2019-01-27T06:16:48.585Z,11.77
2019-01-27T06:19:15.967Z,11.87
2019-01-27T06:21:42.909Z,11.98
2019-01-27T06:24:09.905Z,12.01
2019-01-27T06:26:38.650Z,11.99
2019-01-27T06:29:05.576Z,11.87
2019-01-27T06:31:32.542Z,11.85
2019-01-27T06:33:59.512Z,11.95
2019-01-27T06:36:26.547Z,12.08
2019-01-27T06:38:53.805Z,12.04
2019-01-27T06:41:20.789Z,12.15
2019-01-27T06:43:49.724Z,12.05
2019-01-27T06:46:16.363Z,12.04
2019-01-27T06:48:52.872Z,12.00
2019-01-27T06:51:20.101Z,11.94
2019-01-27T06:53:46.994Z,12.09
2019-01-27T06:56:14.009Z,12.09
2019-01-27T06:58:41.247Z,12.09
2019-01-27T07:01:09.301Z,11.98
2019-01-27T07:03:36.602Z,12.43
2019-01-27T07:06:03.919Z,12.39
2019-01-27T07:08:30.808Z,12.22
2019-01-27T07:10:58.015Z,12.12
2019-01-27T07:13:25.038Z,12.31
2019-01-27T07:15:52.097Z,12.37
2019-01-27T07:18:19.132Z,12.31
2019-01-27T07:20:46.654Z,12.29
2019-01-27T07:23:13.995Z,12.30
2019-01-27T07:25:41.011Z,12.25
2019-01-27T07:28:08.296Z,12.48
2019-01-27T07:30:35.279Z,12.34
2019-01-27T07:33:02.285Z,12.41
2019-01-27T07:35:29.202Z,12.63
2019-01-27T07:37:56.557Z,12.44
2019-01-27T07:40:23.815Z,12.40
2019-01-27T07:42:54.650Z,12.33
2019-01-27T07:45:21.542Z,12.34
2019-01-27T07:47:48.864Z,12.38
2019-01-27T07:50:16.203Z,12.41
2019-01-27T07:52:43.074Z,12.31
2019-01-27T07:55:10.076Z,12.58
2019-01-27T07:57:37.032Z,12.49
2019-01-27T08:00:04.251Z,12.34
2019-01-27T08:02:31.614Z,12.31
2019-01-27T08:04:59.005Z,12.58
2019-01-27T08:07:26.221Z,12.52
2019-01-27T08:09:53.185Z,12.65
2019-01-27T08:12:20.429Z,12.59
2019-01-27T08:14:47.327Z,12.70
2019-01-27T08:17:14.391Z,12.56
2019-01-27T08:19:41.363Z,12.54
2019-01-27T08:22:08.546Z,12.47
2019-01-27T08:24:35.802Z,12.51
2019-01-27T08:27:03.094Z,12.81
2019-01-27T08:29:30.325Z,12.80
2019-01-27T08:31:57.447Z,12.83
2019-01-27T08:34:24.341Z,12.81
2019-01-27T08:36:51.306Z,12.40
2019-01-27T08:39:18.287Z,12.77
2019-01-27T08:41:45.553Z,12.85
2019-01-27T08:44:12.454Z,12.97
2019-01-27T08:46:41.431Z,13.54
2019-01-27T08:49:08.319Z,13.54
2019-01-27T08:51:35.554Z,13.52
2019-01-27T08:54:02.944Z,13.31
2019-01-27T08:56:32.536Z,13.26
2019-01-27T08:59:00.247Z,13.48
2019-01-27T09:01:27.168Z,12.60
2019-01-27T09:03:54.556Z,13.09
2019-01-27T09:06:21.614Z,13.54
2019-01-27T09:08:48.575Z,13.43
2019-01-27T09:11:16.258Z,13.46
2019-01-27T09:13:43.246Z,13.52
2019-01-27T09:16:10.588Z,13.63
2019-01-27T09:18:37.810Z,13.41
2019-01-27T09:21:05.082Z,13.45
2019-01-27T09:23:32.418Z,13.72
2019-01-27T09:25:59.920Z,13.50
2019-01-27T09:28:26.804Z,13.44
2019-01-27T09:30:53.782Z,13.54
2019-01-27T09:33:20.727Z,13.68
2019-01-27T09:35:47.961Z,13.63
2019-01-27T09:38:14.862Z,13.74
2019-01-27T09:40:41.914Z,13.52
2019-01-27T09:43:08.906Z,13.71
2019-01-27T09:45:35.856Z,13.77
2019-01-27T09:48:02.788Z,13.64
2019-01-27T09:50:29.774Z,13.91
2019-01-27T09:52:56.747Z,13.81
2019-01-27T09:55:24.385Z,13.78
2019-01-27T09:57:52.542Z,13.90
2019-01-27T10:00:19.515Z,13.48
2019-01-27T10:02:47.474Z,13.50
2019-01-27T10:05:14.693Z,13.62
2019-01-27T10:07:41.669Z,13.44
2019-01-27T10:10:11.045Z,14.17
2019-01-27T10:12:38.218Z,14.21
2019-01-27T10:15:05.483Z,14.06
2019-01-27T10:17:33.736Z,14.06
2019-01-27T10:20:00.709Z,14.09
2019-01-27T10:22:28.147Z,13.66
2019-01-27T10:24:55.092Z,14.27
2019-01-27T10:27:21.953Z,14.39
2019-01-27T10:29:48.948Z,14.32
2019-01-27T10:32:15.858Z,14.15
2019-01-27T10:34:43.386Z,14.38
2019-01-27T10:37:12.281Z,14.42
2019-01-27T10:39:38.898Z,14.61
2019-01-27T10:42:05.891Z,14.54
2019-01-27T10:44:33.803Z,14.25
2019-01-27T10:47:01.069Z,14.41
2019-01-27T10:49:28.341Z,14.40
2019-01-27T10:51:55.773Z,14.61
2019-01-27T10:54:22.918Z,14.59
2019-01-27T10:56:49.807Z,13.98
2019-01-27T10:59:17.034Z,14.40
2019-01-27T11:01:44.025Z,14.79
2019-01-27T11:04:11.431Z,14.73
2019-01-27T11:06:38.406Z,14.79
2019-01-27T11:09:05.292Z,14.85
2019-01-27T11:11:33.005Z,14.84
2019-01-27T11:13:59.939Z,14.69
2019-01-27T11:16:27.159Z,14.00
2019-01-27T11:18:54.026Z,14.41
2019-01-27T11:21:20.894Z,14.56
2019-01-27T11:23:47.814Z,13.35
2019-01-27T11:26:14.778Z,14.14
2019-01-27T11:28:43.130Z,13.69
2019-01-27T11:31:21.501Z,14.13
2019-01-27T11:34:18.426Z,14.87
2019-01-27T11:36:28.971Z,14.99
2019-01-27T11:39:00.879Z,14.74
2019-01-27T11:41:29.568Z,14.55
2019-01-27T11:43:59.659Z,14.37
2019-01-27T11:46:28.981Z,14.56
2019-01-27T11:48:58.189Z,14.56
2019-01-27T11:51:25.566Z,14.47
2019-01-27T11:53:52.619Z,14.50
2019-01-27T11:59:09.411Z,14.48
2019-01-27T12:01:36.373Z,14.55
2019-01-27T12:04:12.651Z,14.39
2019-01-27T12:06:54.818Z,14.51
2019-01-27T12:09:35.620Z,14.40
2019-01-27T12:12:07.563Z,14.14
2019-01-27T12:14:34.873Z,14.20
2019-01-27T12:17:09.540Z,14.09
2019-01-27T12:19:47.318Z,13.99
2019-01-27T12:22:14.508Z,13.95
2019-01-27T12:24:52.594Z,13.91
2019-01-27T12:27:34.888Z,14.06
2019-01-27T12:32:53.454Z,13.92
2019-01-27T12:35:21.339Z,13.87
2019-01-27T12:37:49.162Z,13.97
2019-01-27T12:40:19.982Z,13.90
2019-01-27T12:42:51.127Z,13.96
2019-01-27T12:45:30.094Z,13.94
2019-01-27T12:48:01.196Z,13.66
2019-01-27T12:50:52.849Z,13.76
2019-01-27T12:53:24.104Z,13.79
2019-01-27T12:58:28.272Z,14.06
2019-01-27T13:01:13.959Z,13.94
2019-01-27T13:03:50.275Z,13.95
2019-01-27T13:09:10.124Z,14.15
2019-01-27T13:11:51.135Z,14.22
2019-01-27T13:14:49.815Z,14.04
2019-01-27T13:17:08.975Z,14.24
2019-01-27T13:22:28.543Z,13.99
2019-01-27T13:27:52.921Z,13.99
2019-01-27T13:30:35.891Z,13.99
2019-01-27T13:33:05.668Z,13.87
2019-01-27T13:35:51.424Z,14.03
2019-01-27T13:38:26.922Z,14.17
2019-01-27T13:43:41.627Z,14.21
2019-01-27T13:46:08.919Z,14.10
2019-01-27T13:49:17.849Z,14.08
2019-01-27T13:54:20.632Z,14.13
2019-01-27T13:56:49.415Z,13.85
2019-01-27T13:59:16.400Z,14.02
2019-01-27T14:01:53.447Z,14.42
2019-01-27T14:04:24.980Z,14.44
2019-01-27T14:07:12.435Z,14.49
2019-01-27T14:15:26.476Z,14.38
2019-01-27T14:18:01.728Z,14.41
2019-01-27T14:20:33.106Z,14.45
2019-01-27T14:26:24.766Z,14.35
2019-01-27T14:28:34.994Z,14.43
2019-01-27T14:34:49.132Z,14.24
2019-01-27T14:36:41.115Z,13.70
2019-01-27T14:39:19.043Z,14.20
2019-01-27T14:41:57.967Z,14.17
2019-01-27T14:47:19.386Z,13.79
2019-01-27T14:49:46.855Z,14.18
2019-01-27T14:52:17.073Z,14.21
2019-01-27T14:54:51.657Z,14.03
2019-01-27T14:57:19.528Z,14.12
2019-01-27T14:59:50.626Z,14.16
2019-01-27T15:02:39.210Z,14.07
2019-01-27T15:05:09.501Z,13.87
2019-01-27T15:07:37.073Z,13.64
2019-01-27T15:10:04.648Z,13.70
2019-01-27T15:12:37.569Z,13.66
2019-01-27T15:15:21.133Z,13.80
2019-01-27T15:18:07.174Z,13.81
2019-01-27T15:23:36.891Z,13.76
2019-01-27T15:29:29.628Z,13.99
2019-01-27T15:32:07.161Z,13.85
2019-01-27T15:35:00.303Z,13.52
2019-01-27T15:37:26.789Z,13.70
2019-01-27T15:39:57.331Z,13.65
2019-01-27T15:42:31.327Z,13.65
2019-01-27T15:45:20.130Z,13.65
2019-01-27T15:48:02.411Z,13.32
2019-01-27T15:53:20.515Z,13.50
2019-01-27T15:55:58.404Z,13.51
2019-01-27T15:58:28.005Z,13.49
2019-01-27T16:01:07.688Z,13.38
2019-01-27T16:03:39.978Z,13.33
2019-01-27T16:06:31.268Z,13.40
2019-01-27T16:09:07.423Z,13.44
2019-01-27T16:14:24.444Z,13.34
2019-01-27T16:19:32.762Z,13.23
2019-01-27T16:24:51.885Z,13.27
2019-01-27T16:27:29.422Z,13.30
2019-01-27T16:32:41.204Z,13.18
2019-01-27T16:35:26.273Z,13.15
2019-01-27T16:37:55.056Z,13.11
2019-01-27T16:40:22.363Z,13.12
2019-01-27T16:42:49.335Z,13.16
2019-01-27T16:45:18.451Z,13.18
2019-01-27T16:47:46.975Z,13.20
2019-01-27T16:50:14.604Z,13.19
2019-01-27T16:52:49.857Z,13.34
2019-01-27T16:55:19.572Z,13.05
2019-01-27T16:57:56.816Z,13.16
2019-01-27T17:00:25.476Z,13.08
2019-01-27T17:02:59.669Z,13.11
2019-01-27T17:05:39.872Z,13.22
2019-01-27T17:08:10.270Z,13.13
2019-01-27T17:10:37.335Z,13.07
2019-01-27T17:13:04.624Z,12.97
2019-01-27T17:15:31.708Z,13.02
2019-01-27T17:18:00.770Z,12.95
2019-01-27T17:20:28.305Z,13.01
2019-01-27T17:22:55.572Z,12.85
2019-01-27T17:25:23.186Z,12.79
2019-01-27T17:27:52.048Z,12.78
2019-01-27T17:30:19.242Z,12.71
2019-01-27T17:32:46.488Z,12.58
2019-01-27T17:35:17.199Z,12.58
2019-01-27T17:37:45.938Z,12.56
2019-01-27T17:40:13.514Z,12.63
2019-01-27T17:42:51.257Z,12.64
2019-01-27T17:45:21.534Z,12.57
2019-01-27T17:47:48.907Z,12.60
2019-01-27T17:50:19.193Z,12.59
2019-01-27T17:52:49.562Z,12.61
2019-01-27T17:55:22.712Z,12.50
2019-01-27T17:57:54.574Z,12.74
2019-01-27T18:00:41.513Z,12.57
2019-01-27T18:03:05.511Z,12.71
2019-01-27T18:05:51.148Z,13.04
2019-01-27T18:08:26.263Z,12.94
2019-01-27T18:10:53.905Z,12.79
2019-01-27T18:13:22.421Z,12.79
2019-01-27T18:16:00.749Z,12.73
2019-01-27T18:18:34.756Z,12.81
2019-01-27T18:21:05.142Z,12.67
2019-01-27T18:23:50.088Z,12.63
2019-01-27T18:26:23.951Z,12.61
2019-01-27T18:28:53.538Z,12.52
2019-01-27T18:31:29.595Z,12.51
2019-01-27T18:34:00.375Z,12.63
2019-01-27T18:36:27.403Z,12.59
2019-01-27T18:38:57.592Z,12.65
2019-01-27T18:41:24.639Z,12.26
2019-01-27T18:43:52.685Z,11.69
2019-01-27T18:46:21.625Z,11.52
2019-01-27T18:48:49.016Z,11.87
2019-01-27T18:51:16.412Z,11.63
2019-01-27T18:53:46.460Z,11.66
2019-01-27T18:56:16.263Z,11.63
2019-01-27T18:58:43.617Z,11.49
2019-01-27T19:01:10.573Z,12.27
2019-01-27T19:03:37.539Z,11.51
2019-01-27T19:06:04.506Z,11.81
2019-01-27T19:08:32.577Z,11.47
2019-01-27T19:10:59.648Z,11.37
2019-01-27T19:13:26.906Z,11.34
2019-01-27T19:15:53.884Z,11.27
2019-01-27T19:18:20.854Z,11.50
2019-01-27T19:20:48.976Z,11.67
2019-01-27T19:23:15.843Z,11.44
2019-01-27T19:25:44.612Z,11.08
2019-01-27T19:28:11.610Z,10.97
2019-01-27T19:30:38.904Z,11.14
2019-01-27T19:33:05.855Z,10.91
2019-01-27T19:35:32.817Z,11.09
2019-01-27T19:38:01.310Z,10.84
2019-01-27T19:40:28.261Z,10.98
2019-01-27T19:42:55.225Z,11.02
2019-01-27T19:45:24.285Z,10.77
2019-01-27T19:47:51.374Z,10.86
2019-01-27T19:50:18.643Z,10.87
2019-01-27T19:52:46.029Z,10.74
2019-01-27T19:55:12.998Z,10.98
2019-01-27T19:57:40.841Z,10.84
2019-01-27T20:00:08.096Z,10.58
2019-01-27T20:02:35.333Z,10.37
2019-01-27T20:05:02.878Z,10.71
2019-01-27T20:07:30.153Z,10.86
2019-01-27T20:10:04.037Z,11.08
2019-01-27T20:12:32.081Z,10.96
2019-01-27T20:14:59.190Z,10.75
2019-01-27T20:17:26.213Z,10.84
2019-01-27T20:19:53.508Z,10.77
2019-01-27T20:22:20.835Z,10.88
2019-01-27T20:24:48.193Z,10.85
2019-01-27T20:27:15.254Z,10.99
2019-01-27T20:29:42.231Z,11.05
2019-01-27T20:32:09.363Z,11.00
2019-01-27T20:34:36.924Z,11.01
2019-01-27T20:37:04.018Z,10.77
2019-01-27T20:39:31.322Z,10.73
2019-01-27T20:41:58.460Z,10.74
2019-01-27T20:44:27.048Z,10.47
2019-01-27T20:46:54.281Z,10.57
2019-01-27T20:49:21.480Z,10.66
2019-01-27T20:51:55.278Z,10.87
2019-01-27T20:54:22.565Z,10.88
2019-01-27T20:56:49.453Z,10.77
2019-01-27T20:59:16.358Z,10.63
2019-01-27T21:01:43.577Z,10.52
2019-01-27T21:04:10.475Z,10.44
2019-01-27T21:06:37.424Z,10.75
2019-01-27T21:09:04.547Z,10.92
2019-01-27T21:11:32.772Z,10.69
2019-01-27T21:13:59.776Z,10.58
2019-01-27T21:16:27.081Z,10.63
2019-01-27T21:18:54.982Z,10.88
2019-01-27T21:21:21.883Z,10.95
2019-01-27T21:23:50.168Z,10.84
2019-01-27T21:26:17.372Z,11.07
2019-01-27T21:28:44.261Z,10.89
2019-01-27T21:31:11.215Z,10.83
2019-01-27T21:33:38.398Z,11.12
2019-01-27T21:36:05.385Z,11.19
2019-01-27T21:38:32.321Z,10.78
2019-01-27T21:40:59.626Z,10.74
2019-01-27T21:43:26.880Z,10.61
2019-01-27T21:45:53.881Z,10.58
2019-01-27T21:48:21.130Z,10.90
2019-01-27T21:50:48.425Z,11.00
2019-01-27T21:53:15.363Z,11.25
2019-01-27T21:55:42.316Z,11.37
2019-01-27T21:58:09.237Z,11.29
2019-01-27T22:00:37.775Z,11.20
2019-01-27T22:03:04.738Z,11.24
2019-01-27T22:05:31.720Z,11.26
2019-01-27T22:07:59.046Z,11.01
2019-01-27T22:10:25.931Z,11.21
2019-01-27T22:12:52.802Z,11.51
2019-01-27T22:15:19.987Z,11.58
2019-01-27T22:17:47.043Z,11.23
2019-01-27T22:20:14.030Z,11.26
2019-01-27T22:22:41.333Z,11.36
2019-01-27T22:25:08.463Z,11.00
2019-01-27T22:27:35.347Z,11.02
2019-01-27T22:30:02.593Z,11.53
2019-01-27T22:32:31.468Z,11.19
2019-01-27T22:34:58.594Z,10.71
2019-01-27T22:37:25.491Z,10.97
2019-01-27T22:39:55.246Z,10.89
2019-01-27T22:42:22.205Z,11.08
2019-01-27T22:44:49.082Z,11.07
2019-01-27T22:47:16.434Z,11.16
2019-01-27T22:49:43.663Z,11.51
2019-01-27T22:52:10.542Z,11.60
2019-01-27T22:54:37.798Z,11.61
2019-01-27T22:57:06.780Z,11.68
2019-01-27T22:59:33.658Z,11.91
2019-01-27T23:02:00.876Z,11.97
2019-01-27T23:04:28.131Z,11.98
2019-01-27T23:06:55.324Z,12.01
2019-01-27T23:09:22.496Z,12.18
2019-01-27T23:11:53.547Z,12.19
2019-01-27T23:14:22.171Z,12.28
2019-01-27T23:16:49.198Z,12.39
2019-01-27T23:19:16.284Z,12.39
2019-01-27T23:21:43.453Z,12.35
2019-01-27T23:24:10.558Z,12.31
2019-01-27T23:26:39.830Z,12.29
2019-01-27T23:29:07.251Z,12.18
2019-01-27T23:31:37.053Z,12.08
2019-01-27T23:34:04.410Z,12.28
2019-01-27T23:36:31.927Z,12.36
2019-01-27T23:38:58.966Z,12.28
2019-01-27T23:41:25.966Z,11.98
2019-01-27T23:43:52.993Z,11.90
2019-01-27T23:46:20.079Z,11.49
2019-01-27T23:48:48.692Z,11.59
2019-01-27T23:51:15.712Z,11.64
2019-01-27T23:53:42.800Z,11.60
2019-01-27T23:56:09.915Z,11.58
2019-01-27T23:58:37.013Z,11.45
